Time;durP1;ratioP1;P1;durP2;ratioP2;P2;SDS_P1;SDS_P2;PMS_P1;PMS_P2;Temp;Humidity;BMP_temperature;BMP_pressure;BME280_temperature;BME280_humidity;BME280_pressure;Samples;Min_cycle;Max_cycle;Signal;HPM_P1;HPM_P2
2023/05/06 00:01:41;;;;;;;0.93;0.90;;;;;;;;;;5019485;28;20223;-83
2023/05/06 00:04:09;;;;;;;0.80;0.80;;;;;;;;;;5019154;28;20239;-84
2023/05/06 00:06:36;;;;;;;2.75;0.95;;;;;;;;;;5019157;28;20273;-84
2023/05/06 00:09:04;;;;;;;1.00;1.00;;;;;;;;;;5019244;28;20282;-84
2023/05/06 00:11:33;;;;;;;0.90;0.90;;;;;;;;;;5019216;28;20258;-85
2023/05/06 00:14:00;;;;;;;1.10;1.10;;;;;;;;;;5019794;28;20732;-85
2023/05/06 00:16:28;;;;;;;0.70;0.70;;;;;;;;;;5018209;28;20258;-85
2023/05/06 00:18:55;;;;;;;1.30;1.20;;;;;;;;;;5018650;28;20728;-85
2023/05/06 00:21:23;;;;;;;1.65;1.10;;;;;;;;;;5019159;28;20715;-84
2023/05/06 00:23:50;;;;;;;0.98;0.98;;;;;;;;;;5018988;28;20289;-84
2023/05/06 00:26:18;;;;;;;1.00;1.00;;;;;;;;;;5018177;28;20597;-84
2023/05/06 00:28:47;;;;;;;0.90;0.90;;;;;;;;;;5019503;28;20217;-85
2023/05/06 00:31:14;;;;;;;1.00;1.00;;;;;;;;;;5018760;28;20253;-84
2023/05/06 00:33:43;;;;;;;0.80;0.77;;;;;;;;;;5018445;28;20209;-85
2023/05/06 00:36:10;;;;;;;1.10;1.00;;;;;;;;;;5019229;28;20313;-85
2023/05/06 00:38:38;;;;;;;1.92;1.00;;;;;;;;;;5019386;28;20258;-85
2023/05/06 00:41:07;;;;;;;0.63;0.63;;;;;;;;;;5019158;28;20267;-84
2023/05/06 00:43:34;;;;;;;0.85;0.85;;;;;;;;;;5019676;28;20237;-84
2023/05/06 00:46:03;;;;;;;0.95;0.70;;;;;;;;;;5018568;28;20251;-84
2023/05/06 00:48:30;;;;;;;0.90;0.90;;;;;;;;;;5018981;28;20644;-84
2023/05/06 00:50:58;;;;;;;2.15;0.93;;;;;;;;;;5019444;28;20410;-84
2023/05/06 00:53:25;;;;;;;0.88;0.88;;;;;;;;;;5019030;28;20265;-84
2023/05/06 00:55:53;;;;;;;1.40;0.90;;;;;;;;;;5019532;28;20227;-83
2023/05/06 00:58:21;;;;;;;0.90;0.90;;;;;;;;;;5018980;28;20238;-84
2023/05/06 01:00:50;;;;;;;1.05;1.05;;;;;;;;;;5029258;28;20606;-84
2023/05/06 01:03:19;;;;;;;0.80;0.80;;;;;;;;;;5030764;28;20684;-85
2023/05/06 01:05:55;;;;;;;0.90;0.90;;;;;;;;;;5038100;28;20229;-85
2023/05/06 01:08:28;;;;;;;1.08;1.08;;;;;;;;;;5038498;28;20208;-84
2023/05/06 01:10:59;;;;;;;0.75;0.75;;;;;;;;;;5038083;28;20313;-84
2023/05/06 01:13:35;;;;;;;1.27;1.10;;;;;;;;;;5038139;28;20233;-84
2023/05/06 01:16:03;;;;;;;1.10;1.10;;;;;;;;;;5038458;28;20702;-84
2023/05/06 01:18:33;;;;;;;0.98;0.98;;;;;;;;;;5018213;28;20207;-85
2023/05/06 01:21:02;;;;;;;1.27;1.00;;;;;;;;;;5018405;28;20247;-85
2023/05/06 01:23:37;;;;;;;0.80;0.80;;;;;;;;;;5017640;28;20265;-85
2023/05/06 01:26:04;;;;;;;0.77;0.77;;;;;;;;;;5018339;28;20264;-85
2023/05/06 01:28:32;;;;;;;0.70;0.70;;;;;;;;;;4998896;28;20203;-84
2023/05/06 01:31:03;;;;;;;1.02;1.02;;;;;;;;;;4998370;28;20226;-85
2023/05/06 01:33:37;;;;;;;0.80;0.80;;;;;;;;;;4998092;28;20207;-85
2023/05/06 01:36:13;;;;;;;0.88;0.88;;;;;;;;;;4997756;28;20223;-85
2023/05/06 01:38:48;;;;;;;0.65;0.65;;;;;;;;;;5002832;28;20202;-84
2023/05/06 01:41:18;;;;;;;1.23;0.90;;;;;;;;;;5004770;28;20218;-85
2023/05/06 01:43:48;;;;;;;0.93;0.93;;;;;;;;;;5004486;28;20286;-84
2023/05/06 01:46:19;;;;;;;0.80;0.80;;;;;;;;;;5006425;28;20585;-85
2023/05/06 01:48:49;;;;;;;1.00;1.00;;;;;;;;;;5024458;28;20186;-85
2023/05/06 01:51:17;;;;;;;1.00;1.00;;;;;;;;;;5024584;28;20281;-85
2023/05/06 01:53:45;;;;;;;1.00;1.00;;;;;;;;;;5024371;28;20226;-85
2023/05/06 01:56:13;;;;;;;1.17;1.17;;;;;;;;;;5023921;28;20225;-85
2023/05/06 01:58:41;;;;;;;1.77;1.67;;;;;;;;;;5004019;28;20203;-84
2023/05/06 02:01:08;;;;;;;1.45;1.30;;;;;;;;;;5004961;28;20242;-85
2023/05/06 02:03:36;;;;;;;1.98;1.88;;;;;;;;;;5004854;28;20227;-84
2023/05/06 02:06:03;;;;;;;2.05;1.95;;;;;;;;;;5004914;28;20574;-85
2023/05/06 02:08:31;;;;;;;1.65;1.55;;;;;;;;;;5004599;28;20621;-84
2023/05/06 02:11:00;;;;;;;1.55;1.45;;;;;;;;;;5004645;28;20230;-84
2023/05/06 02:13:27;;;;;;;1.70;1.60;;;;;;;;;;5004567;28;20203;-85
2023/05/06 02:15:55;;;;;;;2.17;1.85;;;;;;;;;;5004503;28;20251;-83
2023/05/06 02:18:22;;;;;;;2.80;2.60;;;;;;;;;;5023492;28;20246;-85
2023/05/06 02:20:51;;;;;;;2.90;2.70;;;;;;;;;;5024538;28;20207;-84
2023/05/06 02:23:19;;;;;;;2.20;2.10;;;;;;;;;;5025192;28;20237;-84
2023/05/06 02:25:46;;;;;;;3.42;3.13;;;;;;;;;;5024570;28;20225;-84
2023/05/06 02:28:15;;;;;;;2.10;2.00;;;;;;;;;;5007225;28;20238;-85
2023/05/06 02:30:42;;;;;;;2.38;2.20;;;;;;;;;;5004851;28;20675;-85
2023/05/06 02:33:10;;;;;;;3.40;3.10;;;;;;;;;;5004948;28;20242;-84
2023/05/06 02:35:37;;;;;;;4.57;3.42;;;;;;;;;;5005514;28;20227;-84
2023/05/06 02:38:05;;;;;;;3.42;3.13;;;;;;;;;;5005133;28;20257;-82
2023/05/06 02:40:32;;;;;;;4.45;4.05;;;;;;;;;;5004142;28;20333;-85
2023/05/06 02:43:00;;;;;;;3.20;2.90;;;;;;;;;;5004912;28;20286;-85
2023/05/06 02:45:29;;;;;;;4.10;3.70;;;;;;;;;;5004999;28;20219;-85
2023/05/06 02:47:56;;;;;;;3.30;3.08;;;;;;;;;;5020600;28;20207;-85
2023/05/06 02:50:24;;;;;;;3.97;3.67;;;;;;;;;;5020013;28;20266;-84
2023/05/06 02:52:51;;;;;;;4.25;3.85;;;;;;;;;;5020373;28;20282;-84
2023/05/06 02:55:19;;;;;;;4.40;4.00;;;;;;;;;;5020700;28;20309;-84
2023/05/06 02:57:47;;;;;;;4.97;4.57;;;;;;;;;;5019844;28;20264;-84
2023/05/06 03:00:15;;;;;;;5.63;5.13;;;;;;;;;;5019760;28;20676;-85
2023/05/06 03:02:44;;;;;;;5.60;5.07;;;;;;;;;;5017920;28;20309;-85
2023/05/06 03:05:12;;;;;;;5.43;4.93;;;;;;;;;;5020431;28;20226;-85
2023/05/06 03:07:39;;;;;;;4.72;4.32;;;;;;;;;;5020247;28;20226;-84
2023/05/06 03:10:08;;;;;;;4.47;4.15;;;;;;;;;;5019546;28;20257;-84
2023/05/06 03:12:35;;;;;;;5.35;4.85;;;;;;;;;;5021063;28;20263;-85
2023/05/06 03:15:03;;;;;;;2.97;2.78;;;;;;;;;;5020605;28;20254;-84
2023/05/06 03:17:31;;;;;;;4.25;3.85;;;;;;;;;;5019731;28;20294;-85
2023/05/06 03:19:59;;;;;;;4.43;4.13;;;;;;;;;;5020775;28;20203;-85
2023/05/06 03:22:27;;;;;;;4.20;3.83;;;;;;;;;;5020284;28;20706;-84
2023/05/06 03:24:54;;;;;;;5.32;4.88;;;;;;;;;;5020830;28;20650;-85
2023/05/06 03:27:22;;;;;;;3.80;3.50;;;;;;;;;;5020800;28;20301;-84
2023/05/06 03:29:49;;;;;;;3.72;3.42;;;;;;;;;;5019973;28;20238;-85
2023/05/06 03:32:17;;;;;;;3.85;3.47;;;;;;;;;;5020338;28;20237;-84
2023/05/06 03:34:45;;;;;;;2.75;2.55;;;;;;;;;;5020069;28;20219;-84
2023/05/06 03:37:14;;;;;;;5.47;4.97;;;;;;;;;;5020419;28;20246;-85
2023/05/06 03:39:41;;;;;;;6.40;5.13;;;;;;;;;;5019799;28;20293;-84
2023/05/06 03:42:09;;;;;;;4.50;4.10;;;;;;;;;;5019869;28;20255;-84
2023/05/06 03:44:36;;;;;;;5.13;4.65;;;;;;;;;;5020265;28;20207;-85
2023/05/06 03:47:04;;;;;;;4.43;4.05;;;;;;;;;;5011231;28;20196;-85
2023/05/06 03:49:31;;;;;;;4.15;3.85;;;;;;;;;;5000387;28;20669;-84
2023/05/06 03:51:58;;;;;;;4.78;4.38;;;;;;;;;;5000746;28;20793;-85
2023/05/06 03:54:27;;;;;;;6.07;5.30;;;;;;;;;;5000024;28;20207;-84
2023/05/06 03:56:55;;;;;;;4.80;4.40;;;;;;;;;;5005994;28;20211;-85
2023/05/06 03:59:22;;;;;;;3.95;3.63;;;;;;;;;;5019590;28;20211;-85
2023/05/06 04:01:50;;;;;;;5.72;4.47;;;;;;;;;;5019987;28;20241;-85
2023/05/06 04:04:18;;;;;;;5.38;4.88;;;;;;;;;;5021036;28;20286;-85
2023/05/06 04:06:45;;;;;;;5.13;4.68;;;;;;;;;;5019565;28;20218;-85
2023/05/06 04:09:13;;;;;;;4.60;4.20;;;;;;;;;;5019744;28;20277;-85
2023/05/06 04:11:41;;;;;;;5.22;4.72;;;;;;;;;;5020748;28;20262;-84
2023/05/06 04:14:09;;;;;;;5.45;4.95;;;;;;;;;;5020558;28;20238;-85
2023/05/06 04:16:36;;;;;;;4.63;4.25;;;;;;;;;;5020510;28;20653;-84
2023/05/06 04:19:04;;;;;;;4.15;3.67;;;;;;;;;;5019426;28;20657;-84
2023/05/06 04:21:31;;;;;;;4.97;3.90;;;;;;;;;;5019437;28;20272;-84
2023/05/06 04:23:59;;;;;;;4.80;4.13;;;;;;;;;;5019958;28;20569;-85
2023/05/06 04:26:26;;;;;;;3.38;3.08;;;;;;;;;;5017030;28;20692;-85
2023/05/06 04:28:55;;;;;;;3.00;2.80;;;;;;;;;;5000212;28;20238;-84
2023/05/06 04:31:23;;;;;;;3.90;3.60;;;;;;;;;;5000269;28;20223;-84
2023/05/06 04:33:52;;;;;;;4.30;3.78;;;;;;;;;;4999575;28;20258;-84
2023/05/06 04:36:19;;;;;;;3.20;2.92;;;;;;;;;;5000409;28;20251;-84
2023/05/06 04:38:47;;;;;;;2.63;2.42;;;;;;;;;;5000219;28;20240;-84
2023/05/06 04:41:14;;;;;;;2.30;2.10;;;;;;;;;;5000731;28;20271;-85
2023/05/06 04:43:42;;;;;;;3.05;2.85;;;;;;;;;;5000489;28;20232;-84
2023/05/06 04:46:10;;;;;;;3.92;3.63;;;;;;;;;;5001577;28;20227;-85
2023/05/06 04:48:38;;;;;;;4.53;3.55;;;;;;;;;;5019340;28;20297;-85
2023/05/06 04:51:06;;;;;;;3.50;3.20;;;;;;;;;;5019734;28;20194;-85
2023/05/06 04:53:33;;;;;;;4.18;3.78;;;;;;;;;;5019589;28;20309;-85
2023/05/06 04:56:00;;;;;;;2.60;2.40;;;;;;;;;;5019680;28;20246;-85
2023/05/06 04:58:28;;;;;;;4.07;3.78;;;;;;;;;;5018471;28;20242;-85
2023/05/06 05:00:56;;;;;;;4.40;4.00;;;;;;;;;;5018991;28;20238;-84
2023/05/06 05:03:25;;;;;;;4.50;4.10;;;;;;;;;;5018653;28;20227;-84
2023/05/06 05:05:52;;;;;;;5.43;4.28;;;;;;;;;;5019086;28;20317;-84
2023/05/06 05:08:20;;;;;;;4.22;3.83;;;;;;;;;;5018466;28;20650;-85
2023/05/06 05:10:47;;;;;;;3.63;3.33;;;;;;;;;;5018724;28;20236;-85
2023/05/06 05:13:15;;;;;;;5.07;4.57;;;;;;;;;;5017928;28;20286;-84
2023/05/06 05:15:42;;;;;;;9.05;4.93;;;;;;;;;;5018810;28;20321;-84
2023/05/06 05:18:10;;;;;;;5.40;4.90;;;;;;;;;;5018477;28;20273;-85
2023/05/06 05:20:39;;;;;;;4.22;3.83;;;;;;;;;;5017994;28;20234;-84
2023/05/06 05:23:06;;;;;;;3.95;3.65;;;;;;;;;;5018401;28;20668;-85
2023/05/06 05:25:34;;;;;;;5.70;5.10;;;;;;;;;;5017146;28;20226;-84
2023/05/06 05:28:01;;;;;;;5.13;4.65;;;;;;;;;;5017111;28;20209;-85
2023/05/06 05:30:29;;;;;;;4.28;3.88;;;;;;;;;;5017827;28;20274;-85
2023/05/06 05:32:56;;;;;;;3.30;3.00;;;;;;;;;;5017223;28;20195;-84
2023/05/06 05:35:24;;;;;;;3.47;3.17;;;;;;;;;;5017536;28;20310;-85
2023/05/06 05:37:53;;;;;;;5.45;4.95;;;;;;;;;;5017985;28;20203;-84
2023/05/06 05:40:20;;;;;;;4.03;3.60;;;;;;;;;;5018273;28;20267;-85
2023/05/06 05:42:48;;;;;;;4.70;4.30;;;;;;;;;;5013838;28;20720;-86
2023/05/06 05:45:15;;;;;;;5.28;4.78;;;;;;;;;;5014274;28;20273;-85
2023/05/06 05:47:43;;;;;;;5.30;4.80;;;;;;;;;;5014055;28;20297;-86
2023/05/06 05:50:11;;;;;;;5.78;5.20;;;;;;;;;;5014165;28;20235;-85
2023/05/06 05:52:38;;;;;;;5.72;5.13;;;;;;;;;;5014036;28;20233;-86
2023/05/06 05:55:09;;;;;;;6.57;5.70;;;;;;;;;;5013633;28;20219;-85
2023/05/06 05:57:36;;;;;;;5.35;4.72;;;;;;;;;;5014306;28;20207;-86
2023/05/06 06:00:05;;;;;;;6.20;5.65;;;;;;;;;;5014143;28;20206;-86
2023/05/06 06:02:33;;;;;;;5.28;4.78;;;;;;;;;;5013597;28;20290;-85
2023/05/06 06:05:00;;;;;;;7.38;6.03;;;;;;;;;;5013679;28;20317;-86
2023/05/06 06:07:28;;;;;;;4.05;3.75;;;;;;;;;;5013063;28;20661;-86
2023/05/06 06:09:55;;;;;;;3.47;3.17;;;;;;;;;;5013467;28;20289;-86
2023/05/06 06:12:25;;;;;;;3.92;3.53;;;;;;;;;;5013006;28;20298;-86
2023/05/06 06:14:52;;;;;;;5.20;4.70;;;;;;;;;;5013349;28;20225;-86
2023/05/06 06:17:20;;;;;;;5.03;4.53;;;;;;;;;;5013101;28;20736;-86
2023/05/06 06:19:47;;;;;;;3.70;3.40;;;;;;;;;;5013030;28;20615;-86
2023/05/06 06:22:15;;;;;;;3.08;2.78;;;;;;;;;;5012712;28;20238;-86
2023/05/06 06:24:43;;;;;;;3.90;3.60;;;;;;;;;;5016034;28;20306;-86
2023/05/06 06:27:10;;;;;;;2.85;2.65;;;;;;;;;;5017264;28;20207;-86
2023/05/06 06:29:39;;;;;;;2.60;2.40;;;;;;;;;;5016291;28;20195;-86
2023/05/06 06:32:07;;;;;;;3.60;2.60;;;;;;;;;;5016857;28;20725;-85
2023/05/06 06:34:35;;;;;;;2.90;2.70;;;;;;;;;;5016307;28;20261;-85
2023/05/06 06:37:02;;;;;;;3.20;2.90;;;;;;;;;;5016662;28;20234;-86
2023/05/06 06:39:30;;;;;;;4.32;4.03;;;;;;;;;;5016776;28;20295;-85
2023/05/06 06:41:58;;;;;;;4.97;3.45;;;;;;;;;;5016235;28;20202;-86
2023/05/06 06:44:25;;;;;;;3.38;3.10;;;;;;;;;;5016025;28;20230;-86
2023/05/06 06:46:54;;;;;;;3.75;3.45;;;;;;;;;;5017235;28;20297;-85
2023/05/06 06:49:21;;;;;;;3.10;2.80;;;;;;;;;;5016596;28;20195;-85
2023/05/06 06:51:50;;;;;;;2.92;2.72;;;;;;;;;;5016073;28;20282;-85
2023/05/06 06:54:18;;;;;;;3.70;3.40;;;;;;;;;;5017130;28;20206;-85
2023/05/06 06:56:45;;;;;;;4.18;3.80;;;;;;;;;;5011043;28;20228;-86
2023/05/06 06:59:13;;;;;;;4.50;4.10;;;;;;;;;;5002609;28;20246;-86
2023/05/06 07:01:42;;;;;;;3.90;3.58;;;;;;;;;;5027053;28;20629;-86
2023/05/06 07:04:11;;;;;;;3.42;3.13;;;;;;;;;;5028514;28;20746;-84
2023/05/06 07:06:38;;;;;;;2.60;2.40;;;;;;;;;;5015547;28;20710;-86
2023/05/06 07:09:06;;;;;;;3.63;3.33;;;;;;;;;;5018809;28;20241;-85
2023/05/06 07:11:33;;;;;;;2.67;2.47;;;;;;;;;;5016748;28;20290;-86
2023/05/06 07:14:02;;;;;;;2.72;2.53;;;;;;;;;;5015369;28;20199;-85
2023/05/06 07:16:29;;;;;;;3.72;3.42;;;;;;;;;;5012279;28;20284;-85
2023/05/06 07:18:57;;;;;;;3.72;3.42;;;;;;;;;;4996794;28;20368;-87
2023/05/06 07:21:26;;;;;;;2.95;2.65;;;;;;;;;;4995614;28;20200;-85
2023/05/06 07:23:54;;;;;;;3.13;2.83;;;;;;;;;;4997003;28;20583;-86
2023/05/06 07:26:22;;;;;;;4.10;3.70;;;;;;;;;;4999326;28;20299;-85
2023/05/06 07:28:49;;;;;;;2.63;2.42;;;;;;;;;;5015430;28;20207;-86
2023/05/06 07:31:19;;;;;;;3.25;2.85;;;;;;;;;;5016151;28;20552;-85
2023/05/06 07:33:47;;;;;;;2.70;2.50;;;;;;;;;;5015361;28;20649;-86
2023/05/06 07:36:14;;;;;;;4.03;3.38;;;;;;;;;;5014153;28;20233;-86
2023/05/06 07:38:44;;;;;;;3.92;3.47;;;;;;;;;;5014834;28;20294;-85
2023/05/06 07:41:11;;;;;;;2.55;2.35;;;;;;;;;;5015055;28;20210;-86
2023/05/06 07:43:38;;;;;;;3.40;3.10;;;;;;;;;;5016011;28;20250;-86
2023/05/06 07:46:06;;;;;;;2.55;2.35;;;;;;;;;;5014481;28;20586;-86
2023/05/06 07:48:33;;;;;;;2.58;2.38;;;;;;;;;;5015173;28;20277;-85
2023/05/06 07:51:01;;;;;;;2.40;2.20;;;;;;;;;;5015884;28;20577;-86
2023/05/06 07:53:29;;;;;;;2.30;2.10;;;;;;;;;;5015890;28;20195;-86
2023/05/06 07:56:00;;;;;;;2.63;2.42;;;;;;;;;;5015010;28;20223;-86
2023/05/06 07:58:28;;;;;;;2.75;2.55;;;;;;;;;;5014521;28;20242;-86
2023/05/06 08:00:55;;;;;;;2.15;2.05;;;;;;;;;;5014835;28;20235;-86
2023/05/06 08:03:23;;;;;;;2.42;2.22;;;;;;;;;;5014388;28;20285;-86
2023/05/06 08:05:51;;;;;;;2.55;2.28;;;;;;;;;;5014563;28;20787;-85
2023/05/06 08:08:18;;;;;;;1.92;1.83;;;;;;;;;;5015014;28;20278;-86
2023/05/06 08:10:46;;;;;;;2.75;2.55;;;;;;;;;;5014137;28;20736;-86
2023/05/06 08:13:15;;;;;;;2.58;2.38;;;;;;;;;;5014687;28;20227;-86
2023/05/06 08:15:42;;;;;;;2.28;2.17;;;;;;;;;;5015599;28;20714;-85
2023/05/06 08:18:10;;;;;;;2.78;2.38;;;;;;;;;;4996384;28;20211;-86
2023/05/06 08:20:38;;;;;;;2.15;1.90;;;;;;;;;;4994462;28;20286;-85
2023/05/06 08:23:06;;;;;;;1.60;1.50;;;;;;;;;;4995363;28;20267;-86
2023/05/06 08:25:33;;;;;;;1.52;1.42;;;;;;;;;;4994862;28;20274;-85
2023/05/06 08:28:01;;;;;;;1.48;1.38;;;;;;;;;;5009424;28;20728;-86
2023/05/06 08:30:30;;;;;;;1.90;1.80;;;;;;;;;;5014320;28;20293;-85
2023/05/06 08:32:57;;;;;;;3.08;2.13;;;;;;;;;;5014924;28;20202;-86
2023/05/06 08:35:25;;;;;;;1.80;1.70;;;;;;;;;;5015242;28;20326;-86
2023/05/06 08:37:52;;;;;;;1.70;1.60;;;;;;;;;;5015907;28;20270;-85
2023/05/06 08:40:23;;;;;;;2.28;2.08;;;;;;;;;;5016491;28;20293;-85
2023/05/06 08:42:51;;;;;;;1.70;1.60;;;;;;;;;;5016684;28;20207;-85
2023/05/06 08:45:20;;;;;;;2.00;1.90;;;;;;;;;;5014991;28;20235;-86
2023/05/06 08:47:49;;;;;;;1.67;1.55;;;;;;;;;;5013572;28;20202;-85
2023/05/06 08:50:16;;;;;;;1.67;1.58;;;;;;;;;;5016471;28;20245;-86
2023/05/06 08:52:44;;;;;;;0.93;0.93;;;;;;;;;;5014025;28;20290;-85
2023/05/06 08:55:12;;;;;;;1.13;1.10;;;;;;;;;;5014027;28;20817;-86
2023/05/06 08:57:40;;;;;;;1.88;1.40;;;;;;;;;;5013593;28;20294;-86
2023/05/06 09:00:11;;;;;;;1.98;1.88;;;;;;;;;;5014217;28;20194;-85
2023/05/06 09:02:40;;;;;;;3.03;2.72;;;;;;;;;;5013746;28;20642;-87
2023/05/06 09:05:11;;;;;;;2.75;2.55;;;;;;;;;;5013455;28;20666;-85
2023/05/06 09:07:38;;;;;;;1.67;1.58;;;;;;;;;;5013484;28;20191;-86
2023/05/06 09:10:07;;;;;;;1.95;1.85;;;;;;;;;;5013233;28;20270;-86
2023/05/06 09:12:37;;;;;;;1.60;1.50;;;;;;;;;;5013212;28;20218;-86
2023/05/06 09:15:06;;;;;;;2.05;1.50;;;;;;;;;;5013243;28;20589;-86
2023/05/06 09:17:34;;;;;;;1.55;1.45;;;;;;;;;;5000697;28;20298;-85
2023/05/06 09:20:01;;;;;;;2.13;1.85;;;;;;;;;;4996998;28;20266;-85
2023/05/06 09:22:31;;;;;;;1.83;1.73;;;;;;;;;;4993809;28;20214;-86
2023/05/06 09:24:59;;;;;;;1.75;1.65;;;;;;;;;;4993900;28;20620;-85
2023/05/06 09:27:28;;;;;;;2.20;2.10;;;;;;;;;;5004786;28;20293;-86
2023/05/06 09:30:03;;;;;;;1.95;1.80;;;;;;;;;;5013553;28;20206;-86
2023/05/06 09:32:32;;;;;;;2.38;2.10;;;;;;;;;;5014948;28;20293;-85
2023/05/06 09:34:59;;;;;;;1.90;1.80;;;;;;;;;;5014662;28;20305;-86
2023/05/06 09:37:28;;;;;;;1.50;1.40;;;;;;;;;;5013247;28;20238;-86
2023/05/06 09:39:57;;;;;;;1.48;1.38;;;;;;;;;;5014454;28;20551;-86
2023/05/06 09:42:26;;;;;;;3.25;1.35;;;;;;;;;;5013190;28;20302;-86
2023/05/06 09:44:55;;;;;;;1.13;1.10;;;;;;;;;;5013017;28;20253;-85
2023/05/06 09:47:23;;;;;;;1.30;1.20;;;;;;;;;;5013463;28;20222;-86
2023/05/06 09:49:51;;;;;;;1.40;1.23;;;;;;;;;;5013584;28;20231;-85
2023/05/06 09:52:19;;;;;;;1.92;1.20;;;;;;;;;;5013663;28;20209;-86
2023/05/06 09:54:50;;;;;;;1.15;1.10;;;;;;;;;;5014079;28;20219;-86
2023/05/06 09:57:18;;;;;;;3.08;1.58;;;;;;;;;;5014650;28;20211;-85
2023/05/06 09:59:45;;;;;;;0.93;0.93;;;;;;;;;;5016071;28;20235;-86
2023/05/06 10:02:13;;;;;;;1.38;1.27;;;;;;;;;;5017378;28;20237;-86
2023/05/06 10:04:44;;;;;;;1.50;1.35;;;;;;;;;;5016943;28;20285;-86
2023/05/06 10:07:12;;;;;;;1.40;1.30;;;;;;;;;;5017966;28;20233;-85
2023/05/06 10:09:41;;;;;;;3.25;1.70;;;;;;;;;;5020249;28;20257;-85
2023/05/06 10:12:10;;;;;;;4.95;2.42;;;;;;;;;;5018768;28;20206;-86
2023/05/06 10:14:39;;;;;;;1.05;1.05;;;;;;;;;;5018788;28;20242;-86
2023/05/06 10:17:09;;;;;;;1.30;1.20;;;;;;;;;;5016592;28;20205;-85
2023/05/06 10:19:38;;;;;;;1.23;1.15;;;;;;;;;;5016287;28;20199;-86
2023/05/06 10:22:22;;;;;;;0.95;0.95;;;;;;;;;;5016637;28;20339;-85
2023/05/06 10:24:58;;;;;;;1.25;1.15;;;;;;;;;;5016667;28;20258;-86
2023/05/06 10:27:28;;;;;;;1.10;1.00;;;;;;;;;;5005889;28;20764;-85
2023/05/06 10:29:59;;;;;;;1.08;1.08;;;;;;;;;;4996371;28;20204;-85
2023/05/06 10:32:30;;;;;;;1.30;1.20;;;;;;;;;;4997202;28;20294;-86
2023/05/06 10:35:00;;;;;;;1.38;1.27;;;;;;;;;;4997759;28;20306;-85
2023/05/06 10:37:29;;;;;;;2.13;1.40;;;;;;;;;;4997603;28;20211;-86
2023/05/06 10:39:57;;;;;;;1.63;1.52;;;;;;;;;;4998009;28;20707;-86
2023/05/06 10:42:33;;;;;;;2.88;1.50;;;;;;;;;;4997927;28;20274;-85
2023/05/06 10:45:02;;;;;;;1.70;1.40;;;;;;;;;;4997769;28;20314;-85
2023/05/06 10:47:44;;;;;;;1.27;1.20;;;;;;;;;;5008905;28;20227;-86
2023/05/06 10:50:22;;;;;;;1.52;1.20;;;;;;;;;;5015984;28;20202;-86
2023/05/06 10:52:54;;;;;;;1.10;1.10;;;;;;;;;;5016604;28;20207;-86
2023/05/06 10:55:30;;;;;;;1.30;1.20;;;;;;;;;;5017783;28;20297;-85
2023/05/06 10:58:04;;;;;;;2.63;2.42;;;;;;;;;;5001450;28;20298;-86
2023/05/06 11:00:32;;;;;;;1.60;1.50;;;;;;;;;;4996136;28;20176;-86
2023/05/06 11:03:03;;;;;;;1.65;1.55;;;;;;;;;;4996469;28;20210;-86
2023/05/06 11:05:30;;;;;;;1.45;1.35;;;;;;;;;;4996567;28;20227;-86
2023/05/06 11:08:11;;;;;;;1.50;1.40;;;;;;;;;;4996022;28;20662;-86
2023/05/06 11:10:38;;;;;;;2.30;1.73;;;;;;;;;;4995103;28;20282;-87
2023/05/06 11:13:25;;;;;;;1.40;1.30;;;;;;;;;;4995646;28;20211;-87
2023/05/06 11:15:53;;;;;;;1.00;1.00;;;;;;;;;;4995473;28;20234;-87
2023/05/06 11:18:45;;;;;;;24.40;21.98;;;;;;;;;;5013888;28;20206;-87
2023/05/06 11:21:40;;;;;;;8.52;7.70;;;;;;;;;;5014849;28;20548;-87
2023/05/06 11:24:12;;;;;;;4.50;4.07;;;;;;;;;;5016717;28;20237;-85
2023/05/06 11:26:44;;;;;;;2.97;2.45;;;;;;;;;;5012373;28;20619;-85
2023/05/06 11:29:15;;;;;;;1.95;1.75;;;;;;;;;;4996815;28;20250;-86
2023/05/06 11:31:43;;;;;;;1.40;1.30;;;;;;;;;;4997312;28;20232;-86
2023/05/06 11:34:14;;;;;;;1.27;1.25;;;;;;;;;;4995357;28;20196;-87
2023/05/06 11:36:51;;;;;;;1.52;1.42;;;;;;;;;;4995340;28;20646;-86
2023/05/06 11:39:18;;;;;;;1.48;1.33;;;;;;;;;;4995239;28;20632;-85
2023/05/06 11:41:46;;;;;;;2.75;1.50;;;;;;;;;;4995123;28;20287;-86
2023/05/06 11:44:25;;;;;;;1.15;1.15;;;;;;;;;;4994575;28;20213;-86
2023/05/06 11:46:57;;;;;;;1.38;1.27;;;;;;;;;;5001997;28;20242;-85
2023/05/06 11:49:26;;;;;;;1.33;1.30;;;;;;;;;;5014286;28;20724;-86
2023/05/06 11:51:53;;;;;;;1.40;1.30;;;;;;;;;;5014359;28;20199;-86
2023/05/06 11:54:21;;;;;;;1.00;1.00;;;;;;;;;;5014056;28;20241;-86
2023/05/06 11:56:51;;;;;;;1.15;1.05;;;;;;;;;;5014755;28;20223;-85
2023/05/06 11:59:30;;;;;;;1.45;1.35;;;;;;;;;;5015861;28;20266;-85
2023/05/06 12:01:59;;;;;;;1.10;1.10;;;;;;;;;;5015352;28;20206;-86
2023/05/06 12:04:27;;;;;;;1.75;1.20;;;;;;;;;;5014823;28;20287;-86
2023/05/06 12:06:56;;;;;;;1.42;1.33;;;;;;;;;;5015163;28;20219;-86
2023/05/06 12:09:24;;;;;;;1.15;1.05;;;;;;;;;;5014984;28;20199;-85
2023/05/06 12:11:53;;;;;;;1.00;0.95;;;;;;;;;;5015452;28;20245;-86
2023/05/06 12:14:22;;;;;;;1.27;1.17;;;;;;;;;;5015490;28;20207;-86
2023/05/06 12:16:50;;;;;;;0.90;0.90;;;;;;;;;;5014406;28;20321;-86
2023/05/06 12:19:18;;;;;;;5.78;1.90;;;;;;;;;;5014814;28;20289;-86
2023/05/06 12:21:46;;;;;;;0.98;0.98;;;;;;;;;;5014267;28;20206;-86
2023/05/06 12:24:13;;;;;;;0.77;0.77;;;;;;;;;;5014124;28;20207;-85
2023/05/06 12:26:46;;;;;;;1.48;1.00;;;;;;;;;;5009450;28;20366;-86
2023/05/06 12:29:16;;;;;;;1.02;0.93;;;;;;;;;;4994085;28;20631;-86
2023/05/06 12:31:47;;;;;;;1.83;1.45;;;;;;;;;;4996032;28;20247;-85
2023/05/06 12:34:16;;;;;;;1.02;1.00;;;;;;;;;;4995778;28;20250;-86
2023/05/06 12:36:47;;;;;;;1.10;1.10;;;;;;;;;;4995292;28;20291;-85
2023/05/06 12:39:16;;;;;;;1.50;1.40;;;;;;;;;;4995051;28;20671;-86
2023/05/06 12:41:45;;;;;;;1.73;1.10;;;;;;;;;;4995113;28;20247;-86
2023/05/06 12:44:37;;;;;;;3.08;1.60;;;;;;;;;;4994076;28;20207;-86
2023/05/06 12:47:07;;;;;;;1.50;1.40;;;;;;;;;;5002306;28;20191;-85
2023/05/06 12:49:52;;;;;;;0.93;0.93;;;;;;;;;;5013271;28;20203;-86
2023/05/06 12:52:20;;;;;;;0.90;0.90;;;;;;;;;;5013721;28;20226;-86
2023/05/06 12:54:48;;;;;;;1.75;1.33;;;;;;;;;;5014293;28;20223;-85
2023/05/06 12:57:16;;;;;;;1.27;1.23;;;;;;;;;;5014364;28;20206;-87
2023/05/06 12:59:44;;;;;;;1.30;1.20;;;;;;;;;;5011663;28;20218;-86
2023/05/06 13:02:13;;;;;;;1.35;1.25;;;;;;;;;;5016761;28;20246;-86
2023/05/06 13:04:41;;;;;;;2.60;1.50;;;;;;;;;;5021513;28;20199;-86
2023/05/06 13:07:09;;;;;;;1.40;1.30;;;;;;;;;;5013104;28;20290;-86
2023/05/06 13:09:36;;;;;;;1.20;1.20;;;;;;;;;;5013450;28;20226;-86
2023/05/06 13:12:06;;;;;;;1.40;1.30;;;;;;;;;;5014210;28;20253;-87
2023/05/06 13:14:33;;;;;;;1.02;1.02;;;;;;;;;;5013133;28;20257;-87
2023/05/06 13:17:03;;;;;;;0.93;0.93;;;;;;;;;;5013014;28;20305;-87
2023/05/06 13:19:32;;;;;;;1.00;1.00;;;;;;;;;;5012724;28;20653;-87
2023/05/06 13:21:59;;;;;;;1.70;1.55;;;;;;;;;;5013817;28;20621;-86
2023/05/06 13:24:27;;;;;;;1.23;1.15;;;;;;;;;;5013244;28;20203;-86
2023/05/06 13:26:55;;;;;;;1.40;1.30;;;;;;;;;;5013541;28;20639;-86
2023/05/06 13:29:23;;;;;;;1.10;1.00;;;;;;;;;;5012827;28;20582;-87
2023/05/06 13:31:50;;;;;;;1.13;1.02;;;;;;;;;;5013306;28;20294;-86
2023/05/06 13:34:18;;;;;;;0.90;0.90;;;;;;;;;;5012410;28;20190;-86
2023/05/06 13:36:48;;;;;;;1.17;1.10;;;;;;;;;;5013478;28;20258;-87
2023/05/06 13:39:16;;;;;;;1.13;1.10;;;;;;;;;;5014142;28;20191;-86
2023/05/06 13:41:47;;;;;;;1.08;1.08;;;;;;;;;;5013337;28;20213;-85
2023/05/06 13:44:18;;;;;;;1.13;1.10;;;;;;;;;;5013198;28;20627;-86
2023/05/06 13:46:47;;;;;;;1.42;1.30;;;;;;;;;;5014631;28;20305;-86
2023/05/06 13:49:19;;;;;;;1.15;1.15;;;;;;;;;;5014240;28;20245;-86
2023/05/06 13:51:51;;;;;;;1.00;1.00;;;;;;;;;;5015122;28;20210;-85
2023/05/06 13:54:27;;;;;;;1.30;1.23;;;;;;;;;;5015524;28;20210;-85
2023/05/06 13:56:59;;;;;;;1.40;1.30;;;;;;;;;;5014531;28;20194;-85
2023/05/06 13:59:27;;;;;;;1.50;1.20;;;;;;;;;;5015545;28;20203;-86
2023/05/06 14:01:54;;;;;;;1.30;1.20;;;;;;;;;;5015853;28;20621;-86
2023/05/06 14:04:22;;;;;;;1.05;1.05;;;;;;;;;;5015395;28;20199;-85
2023/05/06 14:06:50;;;;;;;1.00;1.00;;;;;;;;;;5013360;28;20269;-85
2023/05/06 14:09:18;;;;;;;1.35;1.25;;;;;;;;;;5012948;28;20668;-86
2023/05/06 14:11:45;;;;;;;1.27;1.25;;;;;;;;;;5013407;28;20643;-86
2023/05/06 14:14:14;;;;;;;1.42;1.10;;;;;;;;;;5013277;28;20223;-86
2023/05/06 14:16:41;;;;;;;1.20;1.20;;;;;;;;;;5012808;28;20234;-86
2023/05/06 14:19:09;;;;;;;0.90;0.90;;;;;;;;;;5013161;28;20869;-86
2023/05/06 14:21:36;;;;;;;1.20;1.13;;;;;;;;;;5013391;28;20269;-86
2023/05/06 14:24:06;;;;;;;1.10;1.10;;;;;;;;;;5013484;28;20692;-86
2023/05/06 14:26:33;;;;;;;3.80;1.95;;;;;;;;;;5014396;28;20654;-86
2023/05/06 14:29:01;;;;;;;1.40;1.30;;;;;;;;;;5013989;28;20253;-85
2023/05/06 14:31:29;;;;;;;1.40;1.30;;;;;;;;;;5014981;28;20293;-86
2023/05/06 14:33:56;;;;;;;2.05;1.40;;;;;;;;;;5013848;28;20203;-86
2023/05/06 14:36:24;;;;;;;3.53;1.70;;;;;;;;;;5014919;28;20223;-86
2023/05/06 14:38:51;;;;;;;1.40;1.23;;;;;;;;;;5014132;28;20266;-86
2023/05/06 14:41:20;;;;;;;1.33;1.23;;;;;;;;;;5014727;28;20199;-86
2023/05/06 14:43:47;;;;;;;1.27;1.27;;;;;;;;;;5012776;28;20661;-86
2023/05/06 14:46:15;;;;;;;1.02;1.02;;;;;;;;;;5015275;28;20407;-86
2023/05/06 14:48:44;;;;;;;1.45;1.35;;;;;;;;;;5016528;28;20259;-86
2023/05/06 14:51:11;;;;;;;2.25;1.58;;;;;;;;;;5015614;28;20203;-86
2023/05/06 14:53:39;;;;;;;1.05;1.02;;;;;;;;;;5015537;28;20627;-86